sensor_id;sensor_type;location;lat;lon;timestamp;pressure;altitude;pressure_sealevel;temperature;humidity
84853;BME280;75109;47.440;19.310;2024-01-27T00:00:32;100348.75;;;7.21;84.34
84853;BME280;75109;47.440;19.310;2024-01-27T00:01:05;100362.94;;;7.19;83.85
84853;BME280;75109;47.440;19.310;2024-01-27T00:01:37;100354.13;;;7.17;84.18
84853;BME280;75109;47.440;19.310;2024-01-27T00:02:10;100360.19;;;7.19;83.93
84853;BME280;75109;47.440;19.310;2024-01-27T00:02:42;100366.03;;;7.18;83.98
84853;BME280;75109;47.440;19.310;2024-01-27T00:03:14;100353.81;;;7.19;83.82
84853;BME280;75109;47.440;19.310;2024-01-27T00:03:46;100362.63;;;7.21;83.90
84853;BME280;75109;47.440;19.310;2024-01-27T00:04:18;100348.75;;;7.21;83.87
84853;BME280;75109;47.440;19.310;2024-01-27T00:04:50;100366.41;;;7.25;83.91
84853;BME280;75109;47.440;19.310;2024-01-27T00:05:23;100364.47;;;7.25;83.74
84853;BME280;75109;47.440;19.310;2024-01-27T00:05:55;100365.25;;;7.26;83.54
84853;BME280;75109;47.440;19.310;2024-01-27T00:06:27;100369.50;;;7.23;83.73
84853;BME280;75109;47.440;19.310;2024-01-27T00:06:59;100371.66;;;7.26;83.85
84853;BME280;75109;47.440;19.310;2024-01-27T00:07:31;100370.53;;;7.27;83.05
84853;BME280;75109;47.440;19.310;2024-01-27T00:08:03;100356.75;;;7.22;83.44
84853;BME280;75109;47.440;19.310;2024-01-27T00:08:35;100366.84;;;7.18;83.12
84853;BME280;75109;47.440;19.310;2024-01-27T00:09:08;100366.22;;;7.21;83.62
84853;BME280;75109;47.440;19.310;2024-01-27T00:09:40;100372.16;;;7.28;82.84
84853;BME280;75109;47.440;19.310;2024-01-27T00:10:12;100369.50;;;7.23;82.78
84853;BME280;75109;47.440;19.310;2024-01-27T00:10:44;100360.53;;;7.26;82.96
84853;BME280;75109;47.440;19.310;2024-01-27T00:11:17;100364.34;;;7.30;82.80
84853;BME280;75109;47.440;19.310;2024-01-27T00:11:50;100361.88;;;7.29;83.25
84853;BME280;75109;47.440;19.310;2024-01-27T00:12:23;100371.53;;;7.32;82.70
84853;BME280;75109;47.440;19.310;2024-01-27T00:12:55;100368.03;;;7.26;83.04
84853;BME280;75109;47.440;19.310;2024-01-27T00:13:28;100369.19;;;7.25;82.81
84853;BME280;75109;47.440;19.310;2024-01-27T00:14:00;100367.84;;;7.22;82.65
84853;BME280;75109;47.440;19.310;2024-01-27T00:14:32;100369.00;;;7.21;83.21
84853;BME280;75109;47.440;19.310;2024-01-27T00:15:07;100372.28;;;7.23;82.53
84853;BME280;75109;47.440;19.310;2024-01-27T00:15:40;100370.81;;;7.26;82.97
84853;BME280;75109;47.440;19.310;2024-01-27T00:16:12;100366.41;;;7.25;82.89
84853;BME280;75109;47.440;19.310;2024-01-27T00:16:44;100371.47;;;7.23;82.64
84853;BME280;75109;47.440;19.310;2024-01-27T00:17:16;100363.78;;;7.20;82.50
84853;BME280;75109;47.440;19.310;2024-01-27T00:17:48;100378.13;;;7.22;82.52
84853;BME280;75109;47.440;19.310;2024-01-27T00:18:20;100371.38;;;7.14;82.67
84853;BME280;75109;47.440;19.310;2024-01-27T00:18:53;100364.06;;;7.18;82.26
84853;BME280;75109;47.440;19.310;2024-01-27T00:19:25;100371.88;;;7.16;82.56
84853;BME280;75109;47.440;19.310;2024-01-27T00:19:57;100369.63;;;7.18;82.51
84853;BME280;75109;47.440;19.310;2024-01-27T00:20:29;100361.94;;;7.15;82.38
84853;BME280;75109;47.440;19.310;2024-01-27T00:21:01;100389.53;;;7.20;82.11
84853;BME280;75109;47.440;19.310;2024-01-27T00:21:33;100360.28;;;7.14;82.05
84853;BME280;75109;47.440;19.310;2024-01-27T00:22:06;100378.75;;;7.19;81.62
84853;BME280;75109;47.440;19.310;2024-01-27T00:22:39;100376.13;;;7.14;81.44
84853;BME280;75109;47.440;19.310;2024-01-27T00:23:11;100372.84;;;7.12;81.61
84853;BME280;75109;47.440;19.310;2024-01-27T00:23:44;100380.00;;;7.13;81.14
84853;BME280;75109;47.440;19.310;2024-01-27T00:24:16;100360.00;;;7.16;81.30
84853;BME280;75109;47.440;19.310;2024-01-27T00:24:48;100378.91;;;7.14;81.11
84853;BME280;75109;47.440;19.310;2024-01-27T00:25:21;100378.91;;;7.14;81.32
84853;BME280;75109;47.440;19.310;2024-01-27T00:25:53;100374.16;;;7.14;80.83
84853;BME280;75109;47.440;19.310;2024-01-27T00:26:25;100360.91;;;7.11;80.76
84853;BME280;75109;47.440;19.310;2024-01-27T00:26:57;100375.09;;;7.10;80.89
84853;BME280;75109;47.440;19.310;2024-01-27T00:27:30;100381.44;;;7.10;80.90
84853;BME280;75109;47.440;19.310;2024-01-27T00:28:03;100373.78;;;7.07;81.26
84853;BME280;75109;47.440;19.310;2024-01-27T00:28:35;100383.25;;;7.06;81.27
84853;BME280;75109;47.440;19.310;2024-01-27T00:29:07;100390.00;;;7.14;80.85
84853;BME280;75109;47.440;19.310;2024-01-27T00:29:39;100395.03;;;7.12;81.06
84853;BME280;75109;47.440;19.310;2024-01-27T00:30:12;100400.88;;;7.10;80.45
84853;BME280;75109;47.440;19.310;2024-01-27T00:30:44;100391.75;;;7.10;80.30
84853;BME280;75109;47.440;19.310;2024-01-27T00:31:16;100392.56;;;7.10;80.78
84853;BME280;75109;47.440;19.310;2024-01-27T00:31:48;100404.78;;;7.09;80.44
84853;BME280;75109;47.440;19.310;2024-01-27T00:32:22;100403.13;;;7.08;80.40
84853;BME280;75109;47.440;19.310;2024-01-27T00:32:54;100403.66;;;7.10;80.10
84853;BME280;75109;47.440;19.310;2024-01-27T00:33:26;100396.34;;;7.14;80.27
84853;BME280;75109;47.440;19.310;2024-01-27T00:33:58;100403.41;;;7.20;79.64
84853;BME280;75109;47.440;19.310;2024-01-27T00:34:30;100397.06;;;7.20;79.13
84853;BME280;75109;47.440;19.310;2024-01-27T00:35:03;100397.88;;;7.20;79.69
84853;BME280;75109;47.440;19.310;2024-01-27T00:35:35;100401.78;;;7.19;79.75
84853;BME280;75109;47.440;19.310;2024-01-27T00:36:07;100399.63;;;7.16;79.27
84853;BME280;75109;47.440;19.310;2024-01-27T00:36:39;100408.34;;;7.23;79.68
84853;BME280;75109;47.440;19.310;2024-01-27T00:37:12;100408.91;;;7.12;79.83
84853;BME280;75109;47.440;19.310;2024-01-27T00:37:44;100399.75;;;7.11;80.03
84853;BME280;75109;47.440;19.310;2024-01-27T00:38:17;100412.97;;;7.14;79.40
84853;BME280;75109;47.440;19.310;2024-01-27T00:38:49;100401.28;;;7.17;79.50
84853;BME280;75109;47.440;19.310;2024-01-27T00:39:21;100403.53;;;7.15;79.17
84853;BME280;75109;47.440;19.310;2024-01-27T00:39:54;100402.72;;;7.15;78.93
84853;BME280;75109;47.440;19.310;2024-01-27T00:40:26;100403.88;;;7.14;79.11
84853;BME280;75109;47.440;19.310;2024-01-27T00:40:58;100405.16;;;7.16;78.73
84853;BME280;75109;47.440;19.310;2024-01-27T00:41:30;100399.34;;;7.18;78.84
84853;BME280;75109;47.440;19.310;2024-01-27T00:42:02;100407.84;;;7.21;78.53
84853;BME280;75109;47.440;19.310;2024-01-27T00:42:36;100404.25;;;7.21;78.40
84853;BME280;75109;47.440;19.310;2024-01-27T00:43:08;100406.19;;;7.20;78.22
84853;BME280;75109;47.440;19.310;2024-01-27T00:43:40;100409.09;;;7.15;78.27
84853;BME280;75109;47.440;19.310;2024-01-27T00:44:12;100410.72;;;7.16;78.47
84853;BME280;75109;47.440;19.310;2024-01-27T00:44:44;100390.50;;;7.16;78.65
84853;BME280;75109;47.440;19.310;2024-01-27T00:45:17;100411.22;;;7.18;78.37
84853;BME280;75109;47.440;19.310;2024-01-27T00:45:49;100403.41;;;7.20;78.24
84853;BME280;75109;47.440;19.310;2024-01-27T00:46:21;100407.22;;;7.24;77.93
84853;BME280;75109;47.440;19.310;2024-01-27T00:46:53;100407.53;;;7.23;77.65
84853;BME280;75109;47.440;19.310;2024-01-27T00:47:25;100411.75;;;7.20;77.67
84853;BME280;75109;47.440;19.310;2024-01-27T00:47:57;100409.59;;;7.17;77.67
84853;BME280;75109;47.440;19.310;2024-01-27T00:48:29;100395.91;;;7.21;77.67
84853;BME280;75109;47.440;19.310;2024-01-27T00:49:01;100402.41;;;7.16;77.92
84853;BME280;75109;47.440;19.310;2024-01-27T00:49:34;100408.97;;;7.20;77.53
84853;BME280;75109;47.440;19.310;2024-01-27T00:50:06;100405.38;;;7.20;78.00
84853;BME280;75109;47.440;19.310;2024-01-27T00:50:40;100408.47;;;7.18;77.53
84853;BME280;75109;47.440;19.310;2024-01-27T00:51:12;100406.00;;;7.17;77.59
84853;BME280;75109;47.440;19.310;2024-01-27T00:51:44;100408.16;;;7.20;77.57
84853;BME280;75109;47.440;19.310;2024-01-27T00:52:16;100413.78;;;7.28;77.70
84853;BME280;75109;47.440;19.310;2024-01-27T00:52:48;100404.06;;;7.17;77.40
84853;BME280;75109;47.440;19.310;2024-01-27T00:53:21;100412.38;;;7.17;77.69
84853;BME280;75109;47.440;19.310;2024-01-27T00:53:53;100400.44;;;7.17;76.87
84853;BME280;75109;47.440;19.310;2024-01-27T00:54:25;100412.75;;;7.24;76.85
84853;BME280;75109;47.440;19.310;2024-01-27T00:54:57;100414.19;;;7.22;76.85
84853;BME280;75109;47.440;19.310;2024-01-27T00:55:29;100410.44;;;7.18;76.54
84853;BME280;75109;47.440;19.310;2024-01-27T00:56:01;100416.03;;;7.26;77.02
84853;BME280;75109;47.440;19.310;2024-01-27T00:56:34;100418.94;;;7.21;76.55
84853;BME280;75109;47.440;19.310;2024-01-27T00:57:06;100409.78;;;7.21;76.90
84853;BME280;75109;47.440;19.310;2024-01-27T00:57:40;100393.88;;;7.13;76.62
84853;BME280;75109;47.440;19.310;2024-01-27T00:58:12;100412.19;;;7.14;76.79
84853;BME280;75109;47.440;19.310;2024-01-27T00:58:44;100399.13;;;7.14;76.78
84853;BME280;75109;47.440;19.310;2024-01-27T00:59:17;100397.50;;;7.13;76.83
84853;BME280;75109;47.440;19.310;2024-01-27T00:59:49;100407.66;;;7.18;76.92
84853;BME280;75109;47.440;19.310;2024-01-27T01:00:21;100404.47;;;7.11;76.68
84853;BME280;75109;47.440;19.310;2024-01-27T01:00:53;100410.13;;;7.19;76.56
84853;BME280;75109;47.440;19.310;2024-01-27T01:01:25;100399.00;;;7.19;76.99
84853;BME280;75109;47.440;19.310;2024-01-27T01:01:57;100413.22;;;7.18;76.38
84853;BME280;75109;47.440;19.310;2024-01-27T01:02:29;100405.69;;;7.18;76.49
84853;BME280;75109;47.440;19.310;2024-01-27T01:03:01;100414.66;;;7.15;76.33
84853;BME280;75109;47.440;19.310;2024-01-27T01:03:34;100424.31;;;7.18;76.61
84853;BME280;75109;47.440;19.310;2024-01-27T01:04:07;100411.47;;;7.08;76.24
84853;BME280;75109;47.440;19.310;2024-01-27T01:04:39;100395.84;;;7.12;76.38
84853;BME280;75109;47.440;19.310;2024-01-27T01:05:11;100410.03;;;7.11;75.39
84853;BME280;75109;47.440;19.310;2024-01-27T01:05:43;100408.59;;;7.13;75.64
84853;BME280;75109;47.440;19.310;2024-01-27T01:06:15;100415.25;;;7.12;75.46
84853;BME280;75109;47.440;19.310;2024-01-27T01:06:47;100404.66;;;7.14;75.83
84853;BME280;75109;47.440;19.310;2024-01-27T01:07:19;100411.22;;;7.18;75.70
84853;BME280;75109;47.440;19.310;2024-01-27T01:07:51;100412.09;;;7.05;75.15
84853;BME280;75109;47.440;19.310;2024-01-27T01:08:23;100420.09;;;7.07;75.36
84853;BME280;75109;47.440;19.310;2024-01-27T01:08:56;100409.00;;;7.07;75.09
84853;BME280;75109;47.440;19.310;2024-01-27T01:09:28;100411.78;;;7.07;74.93
84853;BME280;75109;47.440;19.310;2024-01-27T01:10:00;100409.84;;;7.07;75.33
84853;BME280;75109;47.440;19.310;2024-01-27T01:10:32;100416.81;;;7.05;75.08
84853;BME280;75109;47.440;19.310;2024-01-27T01:11:04;100419.91;;;7.03;75.11
84853;BME280;75109;47.440;19.310;2024-01-27T01:11:37;100410.97;;;7.06;74.77
84853;BME280;75109;47.440;19.310;2024-01-27T01:12:10;100427.41;;;7.03;74.66
84853;BME280;75109;47.440;19.310;2024-01-27T01:12:44;100415.19;;;7.04;75.00
84853;BME280;75109;47.440;19.310;2024-01-27T01:13:16;100422.56;;;7.08;74.40
84853;BME280;75109;47.440;19.310;2024-01-27T01:13:48;100406.03;;;7.03;74.10
84853;BME280;75109;47.440;19.310;2024-01-27T01:14:20;100415.00;;;7.00;74.04
84853;BME280;75109;47.440;19.310;2024-01-27T01:14:52;100433.59;;;7.00;73.75
84853;BME280;75109;47.440;19.310;2024-01-27T01:15:24;100418.88;;;6.99;74.07
84853;BME280;75109;47.440;19.310;2024-01-27T01:15:57;100427.22;;;6.99;73.43
84853;BME280;75109;47.440;19.310;2024-01-27T01:16:29;100426.19;;;6.95;73.66
84853;BME280;75109;47.440;19.310;2024-01-27T01:17:01;100419.00;;;6.94;73.73
84853;BME280;75109;47.440;19.310;2024-01-27T01:17:33;100422.47;;;7.00;73.68
84853;BME280;75109;47.440;19.310;2024-01-27T01:18:05;100417.66;;;7.05;73.73
84853;BME280;75109;47.440;19.310;2024-01-27T01:18:37;100419.72;;;7.00;73.44
84853;BME280;75109;47.440;19.310;2024-01-27T01:19:09;100407.91;;;6.94;73.22
84853;BME280;75109;47.440;19.310;2024-01-27T01:19:42;100428.97;;;6.95;74.03
84853;BME280;75109;47.440;19.310;2024-01-27T01:20:15;100417.25;;;6.98;73.58
84853;BME280;75109;47.440;19.310;2024-01-27T01:20:47;100408.44;;;6.96;73.78
84853;BME280;75109;47.440;19.310;2024-01-27T01:21:19;100403.69;;;6.97;73.66
84853;BME280;75109;47.440;19.310;2024-01-27T01:21:51;100395.06;;;6.98;73.63
84853;BME280;75109;47.440;19.310;2024-01-27T01:22:24;100405.16;;;6.94;73.23
84853;BME280;75109;47.440;19.310;2024-01-27T01:22:56;100396.63;;;6.91;73.23
84853;BME280;75109;47.440;19.310;2024-01-27T01:23:28;100389.84;;;6.83;73.70
84853;BME280;75109;47.440;19.310;2024-01-27T01:24:00;100406.00;;;6.81;73.36
84853;BME280;75109;47.440;19.310;2024-01-27T01:24:32;100398.47;;;6.82;73.42
84853;BME280;75109;47.440;19.310;2024-01-27T01:25:06;100396.03;;;6.80;72.91
84853;BME280;75109;47.440;19.310;2024-01-27T01:25:38;100413.16;;;6.82;72.80
84853;BME280;75109;47.440;19.310;2024-01-27T01:26:11;100413.81;;;6.79;72.61
84853;BME280;75109;47.440;19.310;2024-01-27T01:26:43;100405.16;;;6.81;72.62
84853;BME280;75109;47.440;19.310;2024-01-27T01:27:15;100409.06;;;6.80;72.62
84853;BME280;75109;47.440;19.310;2024-01-27T01:27:52;100409.25;;;6.83;72.55
84853;BME280;75109;47.440;19.310;2024-01-27T01:28:24;100396.41;;;6.87;72.25
84853;BME280;75109;47.440;19.310;2024-01-27T01:28:57;100399.50;;;6.86;72.57
84853;BME280;75109;47.440;19.310;2024-01-27T01:29:29;100413.03;;;6.87;72.48
84853;BME280;75109;47.440;19.310;2024-01-27T01:30:02;100409.16;;;6.88;72.22
84853;BME280;75109;47.440;19.310;2024-01-27T01:30:34;100419.31;;;6.93;72.26
84853;BME280;75109;47.440;19.310;2024-01-27T01:31:06;100414.56;;;6.93;71.42
84853;BME280;75109;47.440;19.310;2024-01-27T01:31:40;100414.78;;;6.83;72.00
84853;BME280;75109;47.440;19.310;2024-01-27T01:32:13;100411.81;;;6.80;71.84
84853;BME280;75109;47.440;19.310;2024-01-27T01:32:45;100421.47;;;6.82;71.75
84853;BME280;75109;47.440;19.310;2024-01-27T01:33:17;100425.09;;;6.83;71.95
84853;BME280;75109;47.440;19.310;2024-01-27T01:33:49;100417.56;;;6.83;72.21
84853;BME280;75109;47.440;19.310;2024-01-27T01:34:22;100424.78;;;6.84;71.71
84853;BME280;75109;47.440;19.310;2024-01-27T01:34:54;100421.59;;;6.91;71.40
84853;BME280;75109;47.440;19.310;2024-01-27T01:35:26;100429.16;;;6.85;71.95
84853;BME280;75109;47.440;19.310;2024-01-27T01:35:58;100435.22;;;6.87;71.84
84853;BME280;75109;47.440;19.310;2024-01-27T01:36:30;100424.03;;;6.92;71.11
84853;BME280;75109;47.440;19.310;2024-01-27T01:37:03;100426.41;;;6.85;71.85
84853;BME280;75109;47.440;19.310;2024-01-27T01:37:35;100427.88;;;6.83;71.82
84853;BME280;75109;47.440;19.310;2024-01-27T01:38:07;100421.38;;;6.87;71.87
84853;BME280;75109;47.440;19.310;2024-01-27T01:38:39;100433.09;;;6.84;71.45
84853;BME280;75109;47.440;19.310;2024-01-27T01:39:12;100423.13;;;6.83;71.51
84853;BME280;75109;47.440;19.310;2024-01-27T01:39:47;100415.94;;;6.82;71.63
84853;BME280;75109;47.440;19.310;2024-01-27T01:40:19;100422.31;;;6.83;71.80
84853;BME280;75109;47.440;19.310;2024-01-27T01:40:51;100423.63;;;6.85;71.35
84853;BME280;75109;47.440;19.310;2024-01-27T01:41:23;100414.31;;;6.81;71.57
84853;BME280;75109;47.440;19.310;2024-01-27T01:41:55;100408.53;;;6.78;71.48
84853;BME280;75109;47.440;19.310;2024-01-27T01:42:27;100415.13;;;6.82;71.69
84853;BME280;75109;47.440;19.310;2024-01-27T01:43:02;100414.78;;;6.83;71.21
84853;BME280;75109;47.440;19.310;2024-01-27T01:43:36;100419.84;;;6.81;71.56
84853;BME280;75109;47.440;19.310;2024-01-27T01:44:09;100409.25;;;6.83;71.18
84853;BME280;75109;47.440;19.310;2024-01-27T01:44:41;100419.94;;;6.76;71.43
84853;BME280;75109;47.440;19.310;2024-01-27T01:45:13;100427.88;;;6.69;71.26
84853;BME280;75109;47.440;19.310;2024-01-27T01:45:46;100426.72;;;6.70;71.74
84853;BME280;75109;47.440;19.310;2024-01-27T01:46:18;100412.88;;;6.70;71.29
84853;BME280;75109;47.440;19.310;2024-01-27T01:46:51;100423.13;;;6.70;71.18
84853;BME280;75109;47.440;19.310;2024-01-27T01:47:23;100419.34;;;6.79;71.17
84853;BME280;75109;47.440;19.310;2024-01-27T01:47:56;100434.31;;;6.78;71.31
84853;BME280;75109;47.440;19.310;2024-01-27T01:48:28;100432.47;;;6.87;71.10
84853;BME280;75109;47.440;19.310;2024-01-27T01:49:01;100446.31;;;6.87;70.98
84853;BME280;75109;47.440;19.310;2024-01-27T01:49:34;100434.00;;;6.80;70.88
84853;BME280;75109;47.440;19.310;2024-01-27T01:50:08;100445.09;;;6.80;70.55
84853;BME280;75109;47.440;19.310;2024-01-27T01:50:40;100446.44;;;6.82;71.14
84853;BME280;75109;47.440;19.310;2024-01-27T01:51:13;100450.44;;;6.76;71.21
84853;BME280;75109;47.440;19.310;2024-01-27T01:51:46;100445.00;;;6.85;71.26
84853;BME280;75109;47.440;19.310;2024-01-27T01:52:19;100449.09;;;6.87;71.07
84853;BME280;75109;47.440;19.310;2024-01-27T01:52:53;100451.34;;;6.85;70.55
84853;BME280;75109;47.440;19.310;2024-01-27T01:53:26;100454.13;;;6.85;71.17
84853;BME280;75109;47.440;19.310;2024-01-27T01:53:59;100464.69;;;6.83;71.25
84853;BME280;75109;47.440;19.310;2024-01-27T01:54:31;100460.31;;;6.69;70.94
84853;BME280;75109;47.440;19.310;2024-01-27T01:55:05;100463.91;;;6.69;71.16
84853;BME280;75109;47.440;19.310;2024-01-27T01:55:38;100467.78;;;6.68;70.83
84853;BME280;75109;47.440;19.310;2024-01-27T01:56:10;100477.25;;;6.67;71.56
84853;BME280;75109;47.440;19.310;2024-01-27T01:56:45;100475.78;;;6.70;71.21
84853;BME280;75109;47.440;19.310;2024-01-27T01:57:18;100461.03;;;6.74;70.98
84853;BME280;75109;47.440;19.310;2024-01-27T01:57:51;100466.75;;;6.78;70.94
84853;BME280;75109;47.440;19.310;2024-01-27T01:58:25;100464.00;;;6.78;71.22
84853;BME280;75109;47.440;19.310;2024-01-27T01:58:57;100459.69;;;6.72;71.37
84853;BME280;75109;47.440;19.310;2024-01-27T01:59:30;100470.16;;;6.75;71.15
84853;BME280;75109;47.440;19.310;2024-01-27T02:00:02;100457.94;;;6.76;71.20
84853;BME280;75109;47.440;19.310;2024-01-27T02:00:35;100464.31;;;6.76;70.73
84853;BME280;75109;47.440;19.310;2024-01-27T02:01:08;100469.25;;;6.79;70.55
84853;BME280;75109;47.440;19.310;2024-01-27T02:01:41;100469.25;;;6.79;70.46
84853;BME280;75109;47.440;19.310;2024-01-27T02:02:15;100467.72;;;6.73;71.20
84853;BME280;75109;47.440;19.310;2024-01-27T02:02:48;100481.78;;;6.77;70.90
84853;BME280;75109;47.440;19.310;2024-01-27T02:03:20;100465.75;;;6.74;71.08
84853;BME280;75109;47.440;19.310;2024-01-27T02:03:53;100469.84;;;6.76;70.93
84853;BME280;75109;47.440;19.310;2024-01-27T02:04:25;100468.00;;;6.72;70.84
84853;BME280;75109;47.440;19.310;2024-01-27T02:04:58;100473.25;;;6.73;70.83
84853;BME280;75109;47.440;19.310;2024-01-27T02:05:31;100473.78;;;6.75;70.97
84853;BME280;75109;47.440;19.310;2024-01-27T02:06:03;100480.44;;;6.74;70.39
84853;BME280;75109;47.440;19.310;2024-01-27T02:06:36;100472.13;;;6.74;71.03
84853;BME280;75109;47.440;19.310;2024-01-27T02:07:09;100479.81;;;6.64;71.00
84853;BME280;75109;47.440;19.310;2024-01-27T02:07:42;100462.25;;;6.68;70.61
84853;BME280;75109;47.440;19.310;2024-01-27T02:08:14;100476.75;;;6.65;70.67
84853;BME280;75109;47.440;19.310;2024-01-27T02:08:47;100466.78;;;6.64;70.81
84853;BME280;75109;47.440;19.310;2024-01-27T02:09:19;100476.75;;;6.65;70.69
84853;BME280;75109;47.440;19.310;2024-01-27T02:09:51;100473.34;;;6.68;70.71
84853;BME280;75109;47.440;19.310;2024-01-27T02:10:23;100464.50;;;6.66;70.46
84853;BME280;75109;47.440;19.310;2024-01-27T02:10:55;100462.97;;;6.60;70.52
84853;BME280;75109;47.440;19.310;2024-01-27T02:11:30;100459.47;;;6.68;70.38
84853;BME280;75109;47.440;19.310;2024-01-27T02:12:02;100459.09;;;6.61;70.59
84853;BME280;75109;47.440;19.310;2024-01-27T02:12:34;100458.75;;;6.63;70.56
84853;BME280;75109;47.440;19.310;2024-01-27T02:13:16;100456.19;;;6.66;70.29
84853;BME280;75109;47.440;19.310;2024-01-27T02:13:52;100456.19;;;6.66;70.28
84853;BME280;75109;47.440;19.310;2024-01-27T02:14:24;100464.50;;;6.66;70.56
84853;BME280;75109;47.440;19.310;2024-01-27T02:14:58;100453.41;;;6.66;70.68
84853;BME280;75109;47.440;19.310;2024-01-27T02:15:31;100459.09;;;6.61;70.20
84853;BME280;75109;47.440;19.310;2024-01-27T02:16:04;100456.00;;;6.63;70.52
84853;BME280;75109;47.440;19.310;2024-01-27T02:16:37;100462.88;;;6.65;70.29
84853;BME280;75109;47.440;19.310;2024-01-27T02:17:09;100462.69;;;6.62;70.07
84853;BME280;75109;47.440;19.310;2024-01-27T02:17:41;100445.81;;;6.58;69.83
84853;BME280;75109;47.440;19.310;2024-01-27T02:18:14;100451.59;;;6.62;69.96
84853;BME280;75109;47.440;19.310;2024-01-27T02:18:47;100455.69;;;6.64;70.30
84853;BME280;75109;47.440;19.310;2024-01-27T02:19:19;100458.16;;;6.66;70.03
84853;BME280;75109;47.440;19.310;2024-01-27T02:19:51;100455.69;;;6.64;69.94
84853;BME280;75109;47.440;19.310;2024-01-27T02:20:24;100455.69;;;6.64;69.63
84853;BME280;75109;47.440;19.310;2024-01-27T02:20:56;100443.78;;;6.64;70.01
84853;BME280;75109;47.440;19.310;2024-01-27T02:21:29;100461.34;;;6.59;70.33
84853;BME280;75109;47.440;19.310;2024-01-27T02:22:01;100462.97;;;6.60;70.12
84853;BME280;75109;47.440;19.310;2024-01-27T02:22:35;100456.50;;;6.65;69.71
84853;BME280;75109;47.440;19.310;2024-01-27T02:23:08;100457.94;;;6.62;69.93
84853;BME280;75109;47.440;19.310;2024-01-27T02:23:40;100459.47;;;6.68;69.35
84853;BME280;75109;47.440;19.310;2024-01-27T02:24:14;100456.81;;;6.63;69.20
84853;BME280;75109;47.440;19.310;2024-01-27T02:24:47;100460.44;;;6.64;69.17
84853;BME280;75109;47.440;19.310;2024-01-27T02:25:19;100455.41;;;6.66;69.27
84853;BME280;75109;47.440;19.310;2024-01-27T02:25:51;100449.94;;;6.61;69.01
84853;BME280;75109;47.440;19.310;2024-01-27T02:26:23;100454.25;;;6.53;69.28
84853;BME280;75109;47.440;19.310;2024-01-27T02:26:56;100449.53;;;6.54;69.26
84853;BME280;75109;47.440;19.310;2024-01-27T02:27:28;100452.09;;;6.50;69.49
84853;BME280;75109;47.440;19.310;2024-01-27T02:28:01;100456.09;;;6.58;69.59
84853;BME280;75109;47.440;19.310;2024-01-27T02:28:36;100446.13;;;6.57;68.84
84853;BME280;75109;47.440;19.310;2024-01-27T02:29:09;100470.16;;;6.61;68.83
84853;BME280;75109;47.440;19.310;2024-01-27T02:29:41;100456.81;;;6.63;69.00
84853;BME280;75109;47.440;19.310;2024-01-27T02:30:14;100457.41;;;6.60;68.65
84853;BME280;75109;47.440;19.310;2024-01-27T02:30:46;100467.50;;;6.56;69.17
84853;BME280;75109;47.440;19.310;2024-01-27T02:31:18;100469.13;;;6.57;68.69
84853;BME280;75109;47.440;19.310;2024-01-27T02:31:50;100463.28;;;6.59;68.63
84853;BME280;75109;47.440;19.310;2024-01-27T02:32:22;100470.75;;;6.58;68.98
84853;BME280;75109;47.440;19.310;2024-01-27T02:32:55;100471.00;;;6.62;68.16
84853;BME280;75109;47.440;19.310;2024-01-27T02:33:28;100470.75;;;6.58;68.21
84853;BME280;75109;47.440;19.310;2024-01-27T02:34:01;100483.19;;;6.61;68.84
84853;BME280;75109;47.440;19.310;2024-01-27T02:34:33;100472.53;;;6.54;68.65
84853;BME280;75109;47.440;19.310;2024-01-27T02:35:05;100478.38;;;6.53;68.72
84853;BME280;75109;47.440;19.310;2024-01-27T02:35:40;100483.81;;;6.58;68.46
84853;BME280;75109;47.440;19.310;2024-01-27T02:36:12;100481.66;;;6.55;67.74
84853;BME280;75109;47.440;19.310;2024-01-27T02:36:45;100495.81;;;6.53;68.23
84853;BME280;75109;47.440;19.310;2024-01-27T02:37:17;100503.63;;;6.51;67.99
84853;BME280;75109;47.440;19.310;2024-01-27T02:37:50;100500.25;;;6.54;68.21
84853;BME280;75109;47.440;19.310;2024-01-27T02:38:22;100498.47;;;6.58;68.23
84853;BME280;75109;47.440;19.310;2024-01-27T02:38:55;100507.00;;;6.48;68.00
84853;BME280;75109;47.440;19.310;2024-01-27T02:39:28;100502.50;;;6.52;68.07
84853;BME280;75109;47.440;19.310;2024-01-27T02:40:01;100513.59;;;6.52;67.93
84853;BME280;75109;47.440;19.310;2024-01-27T02:40:33;100506.06;;;6.53;67.77
84853;BME280;75109;47.440;19.310;2024-01-27T02:41:05;100515.75;;;6.55;67.56
84853;BME280;75109;47.440;19.310;2024-01-27T02:41:39;100508.47;;;6.59;67.63
84853;BME280;75109;47.440;19.310;2024-01-27T02:42:11;100516.47;;;6.61;67.71
84853;BME280;75109;47.440;19.310;2024-01-27T02:42:43;100509.88;;;6.57;68.30
84853;BME280;75109;47.440;19.310;2024-01-27T02:43:15;100524.97;;;6.51;68.15
84853;BME280;75109;47.440;19.310;2024-01-27T02:43:48;100528.97;;;6.58;68.29
84853;BME280;75109;47.440;19.310;2024-01-27T02:44:20;100518.13;;;6.62;67.68
84853;BME280;75109;47.440;19.310;2024-01-27T02:44:52;100528.38;;;6.61;67.52
84853;BME280;75109;47.440;19.310;2024-01-27T02:45:25;100528.47;;;6.56;67.51
84853;BME280;75109;47.440;19.310;2024-01-27T02:45:57;100525.78;;;6.51;67.12
84853;BME280;75109;47.440;19.310;2024-01-27T02:46:29;100526.63;;;6.52;67.37
84853;BME280;75109;47.440;19.310;2024-01-27T02:47:01;100522.09;;;6.56;67.38
84853;BME280;75109;47.440;19.310;2024-01-27T02:47:33;100534.81;;;6.57;66.99
84853;BME280;75109;47.440;19.310;2024-01-27T02:48:06;100533.09;;;6.61;67.39
84853;BME280;75109;47.440;19.310;2024-01-27T02:48:40;100531.16;;;6.61;67.51
84853;BME280;75109;47.440;19.310;2024-01-27T02:49:12;100535.03;;;6.60;67.14
84853;BME280;75109;47.440;19.310;2024-01-27T02:49:44;100532.88;;;6.57;67.18
84853;BME280;75109;47.440;19.310;2024-01-27T02:50:17;100535.13;;;6.55;67.07